Time;durP1;ratioP1;P1;durP2;ratioP2;P2;SDS_P1;SDS_P2;PMS_P1;PMS_P2;Temp;Humidity;BMP_temperature;BMP_pressure;BME280_temperature;BME280_humidity;BME280_pressure;Samples;Min_cycle;Max_cycle;Signal;HPM_P1;HPM_P2
2023/04/12 00:01:09;;;;;;;7.20;3.00;;;10.80;99.90;;;;;;5019617;28;20215;-84
2023/04/12 00:03:38;;;;;;;8.10;2.70;;;10.80;99.90;;;;;;5032659;28;20214;-84
2023/04/12 00:06:06;;;;;;;12.87;2.77;;;10.80;99.90;;;;;;5047840;28;20279;-84
2023/04/12 00:08:34;;;;;;;9.90;2.77;;;10.80;99.90;;;;;;5056562;28;20209;-85
2023/04/12 00:11:02;;;;;;;7.17;3.33;;;10.70;99.90;;;;;;5022822;28;20284;-83
2023/04/12 00:13:29;;;;;;;7.93;2.60;;;10.70;99.90;;;;;;5033994;28;20207;-84
2023/04/12 00:15:56;;;;;;;8.73;2.57;;;10.70;99.90;;;;;;5029067;28;20206;-83
2023/04/12 00:18:24;;;;;;;8.03;2.67;;;10.60;99.90;;;;;;5046088;28;20676;-82
2023/04/12 00:20:52;;;;;;;7.20;2.63;;;10.60;99.90;;;;;;5036924;28;20646;-82
2023/04/12 00:23:19;;;;;;;8.63;2.60;;;10.60;99.90;;;;;;5034503;28;20627;-83
2023/04/12 00:25:47;;;;;;;9.27;2.77;;;10.50;99.90;;;;;;5050856;28;20223;-82
2023/04/12 00:28:17;;;;;;;7.17;2.60;;;10.50;99.90;;;;;;5036086;28;20191;-83
2023/04/12 00:30:44;;;;;;;10.23;3.00;;;10.50;99.90;;;;;;5052455;28;20205;-83
2023/04/12 00:33:11;;;;;;;10.30;3.07;;;10.40;99.90;;;;;;5035920;28;20268;-84
2023/04/12 00:35:38;;;;;;;7.67;2.63;;;10.30;99.90;;;;;;5054267;28;20276;-82
2023/04/12 00:38:09;;;;;;;11.37;3.17;;;10.30;99.90;;;;;;5042360;28;20233;-82
2023/04/12 00:40:40;;;;;;;10.87;2.93;;;10.20;99.90;;;;;;5034160;28;20210;-82
2023/04/12 00:43:09;;;;;;;7.30;3.03;;;10.20;99.90;;;;;;5015152;28;20305;-81
2023/04/12 00:45:38;;;;;;;8.03;3.00;;;10.20;99.90;;;;;;5035670;28;20222;-82
2023/04/12 00:48:06;;;;;;;9.97;2.97;;;10.10;99.90;;;;;;5049858;28;20567;-82
2023/04/12 00:50:34;;;;;;;9.60;2.93;;;10.10;99.90;;;;;;5033528;28;20406;-82
2023/04/12 00:53:02;;;;;;;7.80;3.20;;;10.00;99.90;;;;;;5015586;28;20208;-82
2023/04/12 00:55:32;;;;;;;6.23;2.87;;;10.00;99.90;;;;;;5032634;28;20281;-83
2023/04/12 00:57:59;;;;;;;11.17;3.17;;;10.00;99.90;;;;;;5033043;28;20201;-82
2023/04/12 01:00:26;;;;;;;10.43;3.63;;;10.00;99.90;;;;;;5033052;28;20264;-84
2023/04/12 01:02:53;;;;;;;11.30;3.23;;;9.90;99.90;;;;;;5032723;28;20218;-84
2023/04/12 01:05:22;;;;;;;10.10;3.10;;;9.90;99.90;;;;;;5018738;28;20233;-83
2023/04/12 01:08:15;;;;;;;9.90;3.20;;;9.80;99.90;;;;;;5021749;28;20585;-83
2023/04/12 01:10:55;;;;;;;12.13;3.63;;;9.80;99.90;;;;;;5021604;28;20572;-83
2023/04/12 01:13:38;;;;;;;8.80;3.17;;;9.80;99.90;;;;;;5053507;28;20667;-83
2023/04/12 01:16:30;;;;;;;10.67;2.90;;;9.70;99.90;;;;;;5071206;28;20696;-84
2023/04/12 01:19:05;;;;;;;7.70;3.03;;;9.60;99.90;;;;;;5052748;28;20217;-84
2023/04/12 01:22:15;;;;;;;9.73;3.00;;;9.60;99.90;;;;;;5052668;28;20228;-83
2023/04/12 01:25:04;;;;;;;8.53;2.43;;;9.50;99.90;;;;;;5051573;28;20292;-82
2023/04/12 01:27:55;;;;;;;5.50;2.70;;;9.50;99.90;;;;;;5034330;28;20662;-84
2023/04/12 01:30:26;;;;;;;5.13;2.97;;;9.50;99.90;;;;;;5052406;28;20551;-83
2023/04/12 01:32:57;;;;;;;8.13;3.07;;;9.60;99.90;;;;;;5052989;28;20279;-85
2023/04/12 01:35:29;;;;;;;11.13;3.00;;;9.40;99.90;;;;;;5044024;28;20240;-84
2023/04/12 01:37:58;;;;;;;6.90;2.33;;;9.40;99.90;;;;;;5052473;28;20234;-83
2023/04/12 01:40:28;;;;;;;10.07;3.20;;;9.40;99.90;;;;;;5035604;28;20628;-83
2023/04/12 01:43:05;;;;;;;4.47;2.80;;;9.40;99.90;;;;;;5029096;28;20209;-84
2023/04/12 01:45:32;;;;;;;6.03;2.90;;;9.40;99.90;;;;;;5066936;28;20224;-84
2023/04/12 01:48:00;;;;;;;8.23;3.13;;;9.40;99.90;;;;;;5030032;28;20210;-83
2023/04/12 01:50:39;;;;;;;4.77;2.50;;;9.40;99.90;;;;;;5046717;28;20196;-80
2023/04/12 01:53:27;;;;;;;3.93;2.23;;;9.40;99.90;;;;;;5059772;28;20275;-87
2023/04/12 01:55:58;;;;;;;7.67;3.30;;;9.40;99.90;;;;;;5043682;28;20212;-86
2023/04/12 01:58:26;;;;;;;9.20;2.60;;;9.30;99.90;;;;;;5053001;28;20673;-84
2023/04/12 02:00:56;;;;;;;4.37;2.40;;;9.30;99.90;;;;;;5038131;28;20221;-85
2023/04/12 02:03:23;;;;;;;12.23;2.80;;;9.30;99.90;;;;;;5035877;28;20271;-86
2023/04/12 02:05:51;;;;;;;8.17;3.40;;;9.20;99.90;;;;;;5054926;28;20316;-85
2023/04/12 02:08:18;;;;;;;6.13;2.97;;;9.20;99.90;;;;;;5039052;28;20193;-85
2023/04/12 02:10:45;;;;;;;7.80;3.00;;;9.20;99.90;;;;;;5052282;28;20204;-85
2023/04/12 02:13:13;;;;;;;6.70;3.50;;;9.20;99.90;;;;;;5034622;28;20241;-84
2023/04/12 02:15:39;;;;;;;12.07;3.40;;;9.20;99.90;;;;;;5023358;28;20212;-85
2023/04/12 02:18:06;;;;;;;11.00;3.80;;;9.20;99.90;;;;;;5048683;28;20677;-86
2023/04/12 02:20:34;;;;;;;12.63;4.43;;;9.20;99.90;;;;;;5051655;28;20255;-85
2023/04/12 02:23:01;;;;;;;10.90;3.50;;;9.20;99.90;;;;;;5028174;28;20186;-85
2023/04/12 02:25:28;;;;;;;7.40;3.47;;;9.20;99.90;;;;;;5040285;28;20689;-84
2023/04/12 02:27:55;;;;;;;12.10;4.10;;;9.20;99.90;;;;;;5051059;28;20244;-81
2023/04/12 02:30:22;;;;;;;9.40;3.80;;;9.20;99.90;;;;;;5051599;28;20194;-85
2023/04/12 02:32:50;;;;;;;9.77;4.03;;;9.20;99.90;;;;;;5034392;28;20241;-86
2023/04/12 02:35:17;;;;;;;6.57;3.57;;;9.20;99.90;;;;;;5033217;28;20208;-86
2023/04/12 02:37:45;;;;;;;7.63;3.43;;;9.10;99.90;;;;;;5050914;28;20205;-86
2023/04/12 02:40:14;;;;;;;8.30;3.63;;;9.10;99.90;;;;;;5052386;28;20193;-86
2023/04/12 02:42:42;;;;;;;9.20;3.77;;;9.10;99.90;;;;;;5051966;28;20207;-84
2023/04/12 02:45:10;;;;;;;7.10;3.47;;;9.10;99.90;;;;;;5043642;28;20198;-86
2023/04/12 02:47:37;;;;;;;7.53;3.33;;;9.10;99.90;;;;;;5013180;28;20209;-85
2023/04/12 02:50:05;;;;;;;6.67;2.90;;;9.10;99.90;;;;;;5047785;28;20205;-86
2023/04/12 02:52:32;;;;;;;5.93;3.03;;;9.10;99.90;;;;;;5051446;28;20200;-84
2023/04/12 02:54:59;;;;;;;8.97;3.33;;;9.10;99.90;;;;;;5033319;28;20715;-83
2023/04/12 02:57:26;;;;;;;7.63;2.43;;;9.00;99.90;;;;;;5051280;28;20637;-83
2023/04/12 02:59:53;;;;;;;6.77;2.77;;;9.00;99.90;;;;;;5031902;28;20201;-83
2023/04/12 03:02:21;;;;;;;4.27;2.67;;;9.00;99.90;;;;;;5016675;28;20267;-86
2023/04/12 03:04:49;;;;;;;8.43;3.00;;;9.00;99.90;;;;;;5034227;28;20231;-83
2023/04/12 03:07:18;;;;;;;6.83;2.53;;;9.00;99.90;;;;;;5069325;28;20224;-83
2023/04/12 03:09:46;;;;;;;6.37;2.70;;;9.00;99.90;;;;;;5039459;28;20612;-84
2023/04/12 03:12:15;;;;;;;7.10;3.23;;;9.00;99.90;;;;;;5039490;28;20244;-82
2023/04/12 03:14:42;;;;;;;6.30;2.90;;;9.00;99.90;;;;;;5055820;28;20638;-85
2023/04/12 03:17:09;;;;;;;9.90;3.57;;;9.00;99.90;;;;;;5041388;28;20209;-85
2023/04/12 03:19:36;;;;;;;5.97;2.87;;;9.10;99.90;;;;;;5016466;28;20308;-85
2023/04/12 03:22:03;;;;;;;10.63;3.07;;;9.10;99.90;;;;;;5013994;28;20205;-84
2023/04/12 03:24:33;;;;;;;5.03;2.70;;;9.00;99.90;;;;;;5013963;28;20297;-83
2023/04/12 03:27:05;;;;;;;6.00;2.53;;;9.00;99.90;;;;;;5031011;28;20315;-83
2023/04/12 03:29:32;;;;;;;7.77;3.53;;;9.00;99.90;;;;;;5032685;28;20202;-83
2023/04/12 03:31:59;;;;;;;7.77;2.90;;;9.00;99.90;;;;;;5051392;28;20227;-84
2023/04/12 03:34:30;;;;;;;7.50;2.77;;;9.00;99.90;;;;;;5026485;28;20280;-84
2023/04/12 03:36:59;;;;;;;5.60;2.93;;;9.00;99.90;;;;;;5020456;28;20209;-84
2023/04/12 03:39:29;;;;;;;6.53;2.87;;;9.00;99.90;;;;;;5012898;28;20229;-85
2023/04/12 03:41:57;;;;;;;9.33;3.43;;;9.00;99.90;;;;;;5014935;28;20263;-84
2023/04/12 03:44:25;;;;;;;6.20;3.40;;;9.00;99.90;;;;;;5038738;28;20245;-83
2023/04/12 03:46:52;;;;;;;10.20;3.40;;;9.00;99.90;;;;;;5039437;28;20213;-82
2023/04/12 03:49:23;;;;;;;8.47;3.10;;;8.90;99.90;;;;;;5037512;28;20660;-82
2023/04/12 03:51:51;;;;;;;8.47;3.53;;;8.90;99.90;;;;;;5050765;28;20217;-83
2023/04/12 03:54:28;;;;;;;10.70;3.10;;;9.00;99.90;;;;;;5051831;28;20214;-83
2023/04/12 03:57:03;;;;;;;7.80;3.63;;;8.90;99.90;;;;;;5039540;28;20672;-83
2023/04/12 04:00:13;;;;;;;6.87;3.37;;;8.90;99.90;;;;;;5016301;28;20204;-83
2023/04/12 04:02:50;;;;;;;;;;;;;;;;;;;;;
2023/04/12 04:05:17;;;;;;;8.40;3.00;;;8.90;99.90;;;;;;5042305;28;20349;-81
2023/04/12 04:08:07;;;;;;;9.17;3.07;;;8.80;99.90;;;;;;5016061;28;20197;-85
2023/04/12 04:10:34;;;;;;;9.27;3.00;;;8.80;99.90;;;;;;5030499;28;20216;-85
2023/04/12 04:13:09;;;;;;;10.27;3.00;;;8.80;99.90;;;;;;5021299;28;20207;-87
2023/04/12 04:15:36;;;;;;;12.80;4.03;;;8.80;99.90;;;;;;5032645;28;20675;-85
2023/04/12 04:18:19;;;;;;;11.07;3.77;;;8.70;99.90;;;;;;5050687;28;20287;-85
2023/04/12 04:20:50;;;;;;;7.97;3.73;;;8.70;99.90;;;;;;5051505;28;20232;-84
2023/04/12 04:23:23;;;;;;;7.87;3.87;;;8.70;99.90;;;;;;5035272;28;20200;-86
2023/04/12 04:25:58;;;;;;;8.67;3.90;;;8.70;99.90;;;;;;5053091;28;20221;-86
2023/04/12 04:28:28;;;;;;;7.10;3.73;;;8.70;99.90;;;;;;5037403;28;20195;-86
2023/04/12 04:30:56;;;;;;;6.27;3.50;;;8.60;99.90;;;;;;5056467;28;20204;-84
2023/04/12 04:33:50;;;;;;;9.30;3.87;;;8.60;99.90;;;;;;5025659;28;20202;-85
2023/04/12 04:39:21;;;;;;;10.20;4.07;;;8.50;99.90;;;;;;5037989;28;20244;-84
2023/04/12 04:42:08;;;;;;;12.83;4.13;;;8.60;99.90;;;;;;5014220;28;20610;-87
2023/04/12 04:44:42;;;;;;;11.37;3.90;;;8.50;99.90;;;;;;5015131;28;20201;-85
2023/04/12 04:47:15;;;;;;;14.67;3.87;;;8.50;99.90;;;;;;5027799;28;20228;-87
2023/04/12 04:49:46;;;;;;;7.20;4.00;;;8.60;99.90;;;;;;5033464;28;20211;-86
2023/04/12 04:52:39;;;;;;;7.50;3.93;;;8.50;99.90;;;;;;5036454;28;20197;-86
2023/04/12 04:55:12;;;;;;;7.47;4.20;;;8.40;99.90;;;;;;5037424;28;20292;-84
2023/04/12 04:57:47;;;;;;;7.73;4.47;;;8.40;99.90;;;;;;5029235;28;20638;-85
2023/04/12 05:00:15;;;;;;;8.83;4.00;;;8.40;99.90;;;;;;5036115;28;20205;-87
2023/04/12 05:02:44;;;;;;;9.20;4.53;;;8.50;99.90;;;;;;5036593;28;20946;-86
2023/04/12 05:05:12;;;;;;;7.73;4.10;;;8.40;99.90;;;;;;5037941;28;20202;-85
2023/04/12 05:07:39;;;;;;;8.77;3.97;;;8.50;99.90;;;;;;5029538;28;20568;-86
2023/04/12 05:10:07;;;;;;;9.37;4.67;;;8.40;99.90;;;;;;5021490;28;20657;-87
2023/04/12 05:12:34;;;;;;;9.10;4.37;;;8.40;99.90;;;;;;5039603;28;20214;-87
2023/04/12 05:15:02;;;;;;;8.17;4.57;;;8.40;99.90;;;;;;5040940;28;20623;-86
2023/04/12 05:17:33;;;;;;;9.23;4.73;;;8.40;99.90;;;;;;5041490;28;20291;-86
2023/04/12 05:20:05;;;;;;;12.63;4.90;;;8.40;99.90;;;;;;5027047;28;20624;-87
2023/04/12 05:22:35;;;;;;;10.60;4.77;;;8.30;99.90;;;;;;5030630;28;20564;-87
2023/04/12 05:25:05;;;;;;;7.17;4.80;;;8.40;99.90;;;;;;5018114;28;20318;-86
2023/04/12 05:27:32;;;;;;;10.93;5.03;;;8.40;99.90;;;;;;5015955;28;20230;-85
2023/04/12 05:29:59;;;;;;;7.70;5.00;;;8.40;99.90;;;;;;5017313;28;20195;-85
2023/04/12 05:32:26;;;;;;;9.97;5.53;;;8.50;99.90;;;;;;5032206;28;20258;-81
2023/04/12 05:34:53;;;;;;;9.60;5.37;;;8.40;99.90;;;;;;5032839;28;20205;-81
2023/04/12 05:37:20;;;;;;;8.87;5.17;;;8.30;99.90;;;;;;5022456;28;20718;-80
2023/04/12 05:39:46;;;;;;;9.17;5.23;;;8.30;99.90;;;;;;5023122;28;20575;-81
2023/04/12 05:42:13;;;;;;;9.83;5.70;;;8.30;99.90;;;;;;5030936;28;20235;-76
2023/04/12 05:44:44;;;;;;;11.97;6.00;;;8.30;99.90;;;;;;5029870;28;20637;-87
2023/04/12 05:47:14;;;;;;;8.10;5.90;;;8.40;99.90;;;;;;5030464;28;20234;-86
2023/04/12 05:49:45;;;;;;;9.63;6.27;;;8.40;99.90;;;;;;5032066;28;20204;-87
2023/04/12 05:52:13;;;;;;;9.33;5.80;;;8.30;99.90;;;;;;5032103;28;20205;-85
2023/04/12 05:54:40;;;;;;;10.10;6.67;;;8.40;99.90;;;;;;5031008;28;20220;-87
2023/04/12 05:57:07;;;;;;;7.80;5.87;;;8.40;99.90;;;;;;5033424;28;20217;-85
2023/04/12 05:59:34;;;;;;;11.20;6.17;;;8.40;99.90;;;;;;5031801;28;20186;-85
2023/04/12 06:02:01;;;;;;;9.77;5.87;;;8.40;99.90;;;;;;5031930;28;20193;-86
2023/04/12 06:04:28;;;;;;;9.57;6.73;;;8.50;99.90;;;;;;5032899;28;20217;-90
2023/04/12 06:07:12;;;;;;;10.13;6.27;;;8.40;99.90;;;;;;5013295;28;20278;-85
2023/04/12 06:09:41;;;;;;;12.93;6.70;;;8.60;99.90;;;;;;5013499;28;20245;-87
2023/04/12 06:12:08;;;;;;;13.17;6.87;;;8.50;99.90;;;;;;5028756;28;20197;-86
2023/04/12 06:14:35;;;;;;;13.03;6.80;;;8.50;99.90;;;;;;5013043;28;20730;-86
2023/04/12 06:17:01;;;;;;;10.80;6.23;;;8.50;99.90;;;;;;5027913;28;20642;-86
2023/04/12 06:19:28;;;;;;;9.43;6.17;;;8.60;99.90;;;;;;5011624;28;20304;-87
2023/04/12 06:21:55;;;;;;;9.83;6.57;;;8.50;99.90;;;;;;5012868;28;20282;-85
2023/04/12 06:24:22;;;;;;;8.73;6.47;;;8.50;99.90;;;;;;5011808;28;20202;-88
2023/04/12 06:26:49;;;;;;;15.07;6.63;;;8.50;99.90;;;;;;5012326;28;20302;-87
2023/04/12 06:29:16;;;;;;;11.87;7.03;;;8.50;99.90;;;;;;5012838;28;20927;-86
2023/04/12 06:31:43;;;;;;;9.80;6.40;;;8.60;99.90;;;;;;5013204;28;20288;-88
2023/04/12 06:34:10;;;;;;;14.80;7.00;;;8.60;99.90;;;;;;5012329;28;20210;-86
2023/04/12 06:36:38;;;;;;;12.73;6.70;;;8.60;99.90;;;;;;5011900;28;20630;-88
2023/04/12 06:39:06;;;;;;;12.27;6.20;;;8.60;99.90;;;;;;5014506;28;20252;-87
2023/04/12 06:41:33;;;;;;;11.07;7.20;;;8.60;99.90;;;;;;5015828;28;20206;-85
2023/04/12 06:44:00;;;;;;;9.30;6.40;;;8.60;99.90;;;;;;5012344;28;20210;-87
2023/04/12 06:46:28;;;;;;;12.57;6.90;;;8.70;99.90;;;;;;5013220;28;20369;-87
2023/04/12 06:48:55;;;;;;;10.07;6.37;;;8.70;99.90;;;;;;5012907;28;20253;-88
2023/04/12 06:51:22;;;;;;;14.23;6.73;;;8.70;99.90;;;;;;5015610;28;20285;-88
2023/04/12 06:53:49;;;;;;;12.53;6.73;;;8.70;99.90;;;;;;5028416;28;20259;-88
2023/04/12 06:56:16;;;;;;;10.80;7.03;;;8.70;99.90;;;;;;5028484;28;20222;-87
2023/04/12 06:58:44;;;;;;;13.50;7.60;;;8.70;99.90;;;;;;5028660;28;20203;-89
2023/04/12 07:01:13;;;;;;;11.17;6.97;;;8.70;99.90;;;;;;5013624;28;20245;-87
2023/04/12 07:03:40;;;;;;;11.53;6.80;;;8.80;99.90;;;;;;5012830;28;20229;-88
2023/04/12 07:06:07;;;;;;;13.77;6.47;;;8.80;99.90;;;;;;5036389;28;20560;-88
2023/04/12 07:08:51;;;;;;;12.37;7.37;;;8.80;99.90;;;;;;5052914;28;20218;-87
2023/04/12 07:11:21;;;;;;;15.73;7.27;;;8.70;99.90;;;;;;5054116;28;20204;-89
2023/04/12 07:13:49;;;;;;;13.87;7.83;;;8.80;99.90;;;;;;5052541;28;20220;-87
2023/04/12 07:16:17;;;;;;;12.50;7.03;;;8.80;99.90;;;;;;5054251;28;20205;-88
2023/04/12 07:18:44;;;;;;;13.77;7.17;;;8.70;99.90;;;;;;5053763;28;20205;-87
2023/04/12 07:21:13;;;;;;;13.60;8.17;;;8.80;99.90;;;;;;5058610;28;20197;-88
2023/04/12 07:23:40;;;;;;;13.50;7.70;;;8.80;99.90;;;;;;5075453;28;20288;-90
2023/04/12 07:26:09;;;;;;;12.80;8.00;;;8.80;99.90;;;;;;5076081;28;20283;-87
2023/04/12 07:28:37;;;;;;;12.60;7.90;;;8.90;99.90;;;;;;5060644;28;20231;-87
2023/04/12 07:31:05;;;;;;;12.97;6.77;;;8.90;99.90;;;;;;5045092;28;20712;-87
2023/04/12 07:33:36;;;;;;;10.43;7.00;;;8.90;99.90;;;;;;5059552;28;20563;-88
2023/04/12 07:36:06;;;;;;;10.83;7.07;;;9.00;99.90;;;;;;5052368;28;20201;-88
2023/04/12 07:38:33;;;;;;;13.07;7.13;;;9.00;99.90;;;;;;5056114;28;20185;-86
2023/04/12 07:41:00;;;;;;;12.03;7.80;;;9.10;99.90;;;;;;5075081;28;20193;-88
2023/04/12 07:43:31;;;;;;;11.23;7.00;;;9.10;99.90;;;;;;5070751;28;20212;-88
2023/04/12 07:45:58;;;;;;;9.60;6.23;;;9.20;99.90;;;;;;5039579;28;20235;-87
2023/04/12 07:48:25;;;;;;;11.60;6.97;;;9.20;99.90;;;;;;5037743;28;20268;-89
2023/04/12 07:50:52;;;;;;;10.93;5.83;;;9.30;99.90;;;;;;5054965;28;20189;-88
2023/04/12 07:53:23;;;;;;;9.17;5.57;;;9.30;99.90;;;;;;5038062;28;20297;-87
2023/04/12 07:55:52;;;;;;;7.87;5.40;;;9.40;99.90;;;;;;5038090;28;20259;-88
2023/04/12 07:58:21;;;;;;;10.67;5.37;;;9.50;99.90;;;;;;5039557;28;20587;-87
2023/04/12 08:00:48;;;;;;;12.67;5.97;;;9.60;99.90;;;;;;5056486;28;20220;-87
2023/04/12 08:03:17;;;;;;;9.83;5.23;;;9.60;99.90;;;;;;5040370;28;20197;-89
2023/04/12 08:05:45;;;;;;;8.43;5.60;;;9.60;99.90;;;;;;5033381;28;20247;-87
2023/04/12 08:08:15;;;;;;;11.27;5.60;;;9.60;99.90;;;;;;5074632;28;20223;-88
2023/04/12 08:10:41;;;;;;;9.00;5.37;;;9.60;99.90;;;;;;5058683;28;20247;-87
2023/04/12 08:13:11;;;;;;;11.50;5.37;;;9.70;99.90;;;;;;5061437;28;20292;-88
2023/04/12 08:15:38;;;;;;;8.47;5.33;;;9.80;99.90;;;;;;5060382;28;20633;-89
2023/04/12 08:18:07;;;;;;;12.53;5.67;;;9.70;99.90;;;;;;5059248;28;20228;-80
2023/04/12 08:20:34;;;;;;;10.07;5.20;;;9.70;99.90;;;;;;5077655;28;20235;-88
2023/04/12 08:23:03;;;;;;;13.27;6.27;;;9.70;99.90;;;;;;5059532;28;20313;-89
2023/04/12 08:25:30;;;;;;;12.33;5.13;;;9.80;99.90;;;;;;5073901;28;20185;-88
2023/04/12 08:27:58;;;;;;;16.37;6.00;;;9.90;99.90;;;;;;5075522;28;20251;-88
2023/04/12 08:30:25;;;;;;;11.47;6.00;;;9.90;99.90;;;;;;5072582;28;20230;-87
2023/04/12 08:32:52;;;;;;;17.17;6.00;;;10.00;99.90;;;;;;5043481;28;20233;-88
2023/04/12 08:35:21;;;;;;;11.80;5.67;;;10.10;99.90;;;;;;5060074;28;20608;-85
2023/04/12 08:37:48;;;;;;;16.13;6.50;;;10.20;99.90;;;;;;5042208;28;20214;-87
2023/04/12 08:40:15;;;;;;;9.50;5.57;;;10.30;99.90;;;;;;5042351;28;20197;-88
2023/04/12 08:42:45;;;;;;;15.30;5.23;;;10.30;99.90;;;;;;5041626;28;20230;-86
2023/04/12 08:45:13;;;;;;;18.90;6.70;;;10.40;99.90;;;;;;5059139;28;20207;-88
2023/04/12 08:47:43;;;;;;;11.97;5.67;;;10.70;99.90;;;;;;5048863;28;20247;-85
2023/04/12 08:50:16;;;;;;;11.60;5.10;;;10.60;99.90;;;;;;5052407;28;20650;-84
2023/04/12 08:52:43;;;;;;;8.80;5.60;;;10.60;99.90;;;;;;5037200;28;20644;-83
2023/04/12 08:55:11;;;;;;;11.80;5.40;;;10.70;99.90;;;;;;5053958;28;20193;-82
2023/04/12 08:57:40;;;;;;;12.43;5.47;;;10.70;99.90;;;;;;5053856;28;20468;-83
2023/04/12 09:00:09;;;;;;;11.23;5.20;;;10.60;99.90;;;;;;5036406;28;20204;-81
2023/04/12 09:02:36;;;;;;;11.03;5.40;;;10.70;99.90;;;;;;5054341;28;20663;-81
2023/04/12 09:05:05;;;;;;;13.83;5.67;;;10.70;99.90;;;;;;5058117;28;20184;-84
2023/04/12 09:07:33;;;;;;;18.10;6.57;;;10.70;99.90;;;;;;5056495;28;20313;-83
2023/04/12 09:10:00;;;;;;;12.43;6.30;;;10.70;99.90;;;;;;5055991;28;20202;-83
2023/04/12 09:12:27;;;;;;;14.40;6.10;;;10.90;99.90;;;;;;5073636;28;20198;-84
2023/04/12 09:15:11;;;;;;;13.27;7.27;;;10.90;99.90;;;;;;5073642;28;20227;-83
2023/04/12 09:17:40;;;;;;;14.43;7.47;;;11.00;99.90;;;;;;5056635;28;20216;-83
2023/04/12 09:20:20;;;;;;;18.13;7.27;;;11.20;99.90;;;;;;5073118;28;20232;-83
2023/04/12 09:22:47;;;;;;;16.87;6.67;;;11.50;99.90;;;;;;5073504;28;20239;-85
2023/04/12 09:25:14;;;;;;;17.43;8.40;;;11.80;99.90;;;;;;5056700;28;20295;-84
2023/04/12 09:27:49;;;;;;;15.93;7.90;;;12.20;99.90;;;;;;5073060;28;20262;-82
2023/04/12 09:30:18;;;;;;;13.00;6.40;;;12.60;99.90;;;;;;5064144;28;20237;-81
2023/04/12 09:32:48;;;;;;;16.57;7.33;;;12.80;99.90;;;;;;5035510;28;20304;-83
2023/04/12 09:35:15;;;;;;;15.20;6.47;;;12.90;99.90;;;;;;5053099;28;20202;-81
2023/04/12 09:37:42;;;;;;;20.97;6.53;;;12.90;99.90;;;;;;5035654;28;20274;-82
2023/04/12 09:40:09;;;;;;;17.53;5.80;;;12.80;99.90;;;;;;5066612;28;20208;-82
2023/04/12 09:42:54;;;;;;;14.27;5.63;;;12.90;99.90;;;;;;5063946;28;20209;-82
2023/04/12 09:45:26;;;;;;;15.83;6.23;;;12.80;99.90;;;;;;5053179;28;20680;-82
2023/04/12 09:47:54;;;;;;;25.73;7.00;;;12.90;99.90;;;;;;5034849;28;20221;-82
2023/04/12 09:50:29;;;;;;;18.07;6.33;;;12.70;99.90;;;;;;5052751;28;20576;-82
2023/04/12 09:52:56;;;;;;;20.70;6.10;;;12.80;99.90;;;;;;5052597;28;20201;-81
2023/04/12 09:55:25;;;;;;;20.40;7.00;;;12.70;99.90;;;;;;5034425;28;20220;-80
2023/04/12 09:57:54;;;;;;;14.90;5.67;;;12.70;99.90;;;;;;5034627;28;20193;-83
2023/04/12 10:00:26;;;;;;;18.07;5.57;;;12.80;99.90;;;;;;5061998;28;20207;-81
2023/04/12 10:02:54;;;;;;;20.63;5.33;;;13.00;99.90;;;;;;5053530;28;20206;-82
2023/04/12 10:05:24;;;;;;;15.47;5.50;;;13.10;99.90;;;;;;5059050;28;20200;-81
2023/04/12 10:07:52;;;;;;;13.83;5.87;;;13.20;99.90;;;;;;5072558;28;20228;-84
2023/04/12 10:10:20;;;;;;;11.43;4.80;;;13.00;99.90;;;;;;5073112;28;20231;-85
2023/04/12 10:12:47;;;;;;;14.37;5.20;;;13.10;99.90;;;;;;5055085;28;20240;-81
2023/04/12 10:15:20;;;;;;;13.67;4.13;;;13.50;99.90;;;;;;5055351;28;20295;-83
2023/04/12 10:17:52;;;;;;;11.23;4.70;;;13.40;99.90;;;;;;5058761;28;20215;-84
2023/04/12 10:20:22;;;;;;;13.73;4.67;;;13.60;99.90;;;;;;5079531;28;20259;-82
2023/04/12 10:22:53;;;;;;;15.57;4.30;;;13.70;99.90;;;;;;5062871;28;20751;-83
2023/04/12 10:25:22;;;;;;;11.77;4.50;;;13.60;99.90;;;;;;5066644;28;20208;-83
2023/04/12 10:27:49;;;;;;;10.13;3.83;;;13.70;99.90;;;;;;5069962;28;20658;-82
2023/04/12 10:30:28;;;;;;;14.70;4.57;;;13.80;99.90;;;;;;5083827;28;20194;-81
2023/04/12 10:33:04;;;;;;;11.63;4.30;;;13.80;99.90;;;;;;5068982;28;20189;-82
2023/04/12 10:36:02;;;;;;;16.70;4.47;;;13.70;99.90;;;;;;5054538;28;20213;-82
2023/04/12 10:38:36;;;;;;;14.90;4.27;;;13.60;99.90;;;;;;5039966;28;20205;-79
2023/04/12 10:41:12;;;;;;;13.13;3.67;;;13.60;99.90;;;;;;5033675;28;20201;-80
2023/04/12 10:43:44;;;;;;;11.53;3.90;;;13.50;99.90;;;;;;5055911;28;20197;-83
2023/04/12 10:46:44;;;;;;;14.50;4.17;;;13.50;99.90;;;;;;5042793;28;20193;-84
2023/04/12 10:49:15;;;;;;;16.13;4.50;;;13.70;99.90;;;;;;4999044;28;20225;-82
2023/04/12 10:52:14;;;;;;;13.30;4.33;;;13.60;99.90;;;;;;5062805;28;20209;-83
2023/04/12 10:54:41;;;;;;;16.07;4.00;;;13.80;99.90;;;;;;5020987;28;20209;-81
2023/04/12 10:57:45;;;;;;;15.90;3.90;;;13.90;99.90;;;;;;5051988;28;20209;-83
2023/04/12 11:00:15;;;;;;;13.43;3.97;;;13.90;99.90;;;;;;5037688;28;20270;-81
2023/04/12 11:03:10;;;;;;;15.23;4.07;;;13.90;99.90;;;;;;5037250;28;20266;-82
2023/04/12 11:06:02;;;;;;;10.67;3.60;;;13.90;99.90;;;;;;5046503;28;20250;-82
2023/04/12 11:08:53;;;;;;;13.50;3.40;;;13.90;99.90;;;;;;5060424;28;20235;-84
2023/04/12 11:11:21;;;;;;;10.27;3.37;;;14.00;99.90;;;;;;5069904;28;20216;-82
2023/04/12 11:13:54;;;;;;;9.63;3.43;;;14.00;99.90;;;;;;5082284;28;20205;-81
2023/04/12 11:16:21;;;;;;;13.97;3.50;;;14.00;99.90;;;;;;5075246;28;20197;-83
2023/04/12 11:18:49;;;;;;;19.40;4.67;;;14.20;99.90;;;;;;5076389;28;20189;-82
2023/04/12 11:21:17;;;;;;;16.53;3.47;;;14.20;99.90;;;;;;5088503;28;20204;-82
2023/04/12 11:23:45;;;;;;;8.40;2.60;;;14.20;99.90;;;;;;5077900;28;20556;-85
2023/04/12 11:26:19;;;;;;;19.10;3.97;;;14.40;99.90;;;;;;5075821;28;20736;-84
2023/04/12 11:28:47;;;;;;;12.20;2.73;;;14.20;99.90;;;;;;5066048;28;20240;-82
2023/04/12 11:31:14;;;;;;;10.33;2.83;;;14.30;99.90;;;;;;5055427;28;20679;-83
2023/04/12 11:33:41;;;;;;;13.87;4.60;;;14.30;99.90;;;;;;5076080;28;20201;-82
2023/04/12 11:36:12;;;;;;;11.97;2.70;;;14.10;99.90;;;;;;5063465;28;20216;-79
2023/04/12 11:38:46;;;;;;;11.60;2.67;;;14.20;99.90;;;;;;5057848;28;20196;-81
2023/04/12 11:41:14;;;;;;;16.93;3.40;;;14.20;99.90;;;;;;5070592;28;20204;-83
2023/04/12 11:43:44;;;;;;;10.23;3.33;;;14.20;99.90;;;;;;5059176;28;20253;-84
2023/04/12 11:46:11;;;;;;;11.50;2.87;;;14.10;99.90;;;;;;5058390;28;20204;-82
2023/04/12 11:48:43;;;;;;;17.17;3.70;;;14.00;99.90;;;;;;5073628;28;20228;-83
2023/04/12 11:51:23;;;;;;;14.27;3.33;;;14.10;99.90;;;;;;5060037;28;20705;-80
2023/04/12 11:53:55;;;;;;;15.30;4.00;;;14.10;99.90;;;;;;5052926;28;20204;-80
2023/04/12 11:56:23;;;;;;;10.07;3.53;;;14.10;99.90;;;;;;5055580;28;20223;-84
2023/04/12 11:58:53;;;;;;;19.83;3.93;;;14.20;99.90;;;;;;5060609;28;20195;-83
2023/04/12 12:01:21;;;;;;;20.60;4.33;;;14.10;99.90;;;;;;5059140;28;20227;-82
2023/04/12 12:03:49;;;;;;;14.50;3.43;;;14.20;99.90;;;;;;5057194;28;20209;-80
2023/04/12 12:06:18;;;;;;;12.63;3.40;;;14.10;99.90;;;;;;5076138;28;20700;-83
2023/04/12 12:08:47;;;;;;;20.27;3.87;;;14.10;99.90;;;;;;5076800;28;20707;-85
2023/04/12 12:11:14;;;;;;;11.27;3.67;;;13.80;99.90;;;;;;5060228;28;20253;-81
2023/04/12 12:13:49;;;;;;;8.83;2.90;;;13.70;99.90;;;;;;5080881;28;20250;-82
2023/04/12 12:16:30;;;;;;;12.33;3.00;;;13.70;99.90;;;;;;5062005;28;20206;-82
2023/04/12 12:19:06;;;;;;;8.17;2.60;;;13.30;99.90;;;;;;5089295;28;20228;-80
2023/04/12 12:21:32;;;;;;;9.67;2.60;;;13.00;99.90;;;;;;5081129;28;20184;-83
2023/04/12 12:23:59;;;;;;;8.90;2.10;;;12.80;99.90;;;;;;5061835;28;20231;-81
2023/04/12 12:26:27;;;;;;;13.73;2.53;;;12.40;99.90;;;;;;5079129;28;20207;-84
2023/04/12 12:28:56;;;;;;;12.70;2.93;;;12.60;99.90;;;;;;5076297;28;20227;-83
2023/04/12 12:31:25;;;;;;;9.20;2.53;;;12.10;99.90;;;;;;5040153;28;20660;-81
2023/04/12 12:33:57;;;;;;;11.33;2.17;;;12.40;99.90;;;;;;5057047;28;20206;-82
2023/04/12 12:36:38;;;;;;;13.50;2.40;;;12.10;99.90;;;;;;5054270;28;20659;-80
2023/04/12 12:39:10;;;;;;;9.27;2.60;;;12.20;99.90;;;;;;5036594;28;20258;-79
2023/04/12 12:41:38;;;;;;;6.40;1.80;;;12.40;99.90;;;;;;5054435;28;20201;-78
2023/04/12 12:44:06;;;;;;;6.93;1.80;;;12.70;99.90;;;;;;5051315;28;20654;-79
2023/04/12 12:46:41;;;;;;;5.83;1.70;;;13.00;99.90;;;;;;5058809;28;20190;-82
2023/04/12 12:49:22;;;;;;;6.70;2.93;;;13.30;99.90;;;;;;5035972;28;20225;-82
2023/04/12 12:51:53;;;;;;;6.63;1.93;;;13.50;99.90;;;;;;5030446;28;20198;-82
2023/04/12 12:54:20;;;;;;;9.50;2.00;;;13.60;99.90;;;;;;5030092;28;20198;-83
2023/04/12 12:57:06;;;;;;;7.13;2.30;;;13.90;99.90;;;;;;5046016;28;20663;-84
2023/04/12 12:59:33;;;;;;;14.07;2.40;;;14.50;99.90;;;;;;5030938;28;20198;-85
2023/04/12 13:02:00;;;;;;;11.57;2.70;;;14.40;99.90;;;;;;5049523;28;20204;-84
2023/04/12 13:04:27;;;;;;;12.53;3.07;;;15.90;99.90;;;;;;5033621;28;20196;-85
2023/04/12 13:06:54;;;;;;;11.67;2.90;;;15.20;99.90;;;;;;5054463;28;20570;-84
2023/04/12 13:09:21;;;;;;;14.10;3.23;;;13.70;99.90;;;;;;5034540;28;20683;-84